Time;durP1;ratioP1;P1;durP2;ratioP2;P2;SDS_P1;SDS_P2;PMS_P1;PMS_P2;Temp;Humidity;BMP_temperature;BMP_pressure;BME280_temperature;BME280_humidity;BME280_pressure;Samples;Min_cycle;Max_cycle;Signal;HPM_P1;HPM_P2
2022/09/13 00:02:16;;;;;;;3.43;2.87;;;;;;;18.66;53.25;96602.78;4951761;29;20339;-74
2022/09/13 00:04:43;;;;;;;3.20;2.43;;;;;;;18.64;53.33;96602.09;4935231;29;20193;-75
2022/09/13 00:07:10;;;;;;;2.73;2.50;;;;;;;18.57;54.37;96609.63;4950859;29;20238;-74
2022/09/13 00:09:37;;;;;;;3.50;2.57;;;;;;;18.67;54.02;96613.13;4952281;29;20205;-74
2022/09/13 00:12:04;;;;;;;2.63;2.43;;;;;;;18.61;54.41;96604.94;4950668;29;20279;-75
2022/09/13 00:14:30;;;;;;;3.90;2.40;;;;;;;18.61;54.16;96607.56;4952044;29;20239;-74
2022/09/13 00:16:57;;;;;;;2.60;2.37;;;;;;;18.52;54.35;96603.97;4950939;29;20196;-75
2022/09/13 00:19:25;;;;;;;3.13;2.83;;;;;;;18.56;54.62;96609.78;4951744;29;20307;-74
2022/09/13 00:21:52;;;;;;;3.93;2.40;;;;;;;18.54;53.88;96612.53;4934723;29;20655;-74
2022/09/13 00:24:19;;;;;;;5.07;2.70;;;;;;;18.59;53.89;96604.25;4942576;29;20713;-74
2022/09/13 00:26:46;;;;;;;3.70;2.47;;;;;;;18.55;54.11;96615.97;4931536;29;20200;-74
2022/09/13 00:29:13;;;;;;;2.80;2.50;;;;;;;18.45;53.75;96599.34;4931066;29;20215;-74
2022/09/13 00:31:40;;;;;;;3.07;2.23;;;;;;;18.52;53.49;96606.59;4932779;29;20231;-75
2022/09/13 00:34:07;;;;;;;2.53;2.33;;;;;;;18.47;52.90;96592.19;4930980;29;20264;-74
2022/09/13 00:36:34;;;;;;;3.80;2.70;;;;;;;18.59;52.47;96606.88;4932747;29;20206;-75
2022/09/13 00:39:01;;;;;;;4.30;1.93;;;;;;;18.50;52.65;96597.19;4932132;29;20284;-76
2022/09/13 00:41:28;;;;;;;2.60;2.20;;;;;;;18.50;52.71;96611.13;4932098;29;20279;-76
2022/09/13 00:44:00;;;;;;;3.77;1.90;;;;;;;18.49;52.47;96598.13;4931645;29;20217;-76
2022/09/13 00:46:38;;;;;;;2.47;2.17;;;;;;;18.43;52.88;96609.09;4930451;29;20197;-76
2022/09/13 00:49:16;;;;;;;4.60;2.00;;;;;;;18.43;52.86;96599.47;4934398;29;20260;-76
2022/09/13 00:51:49;;;;;;;2.70;2.03;;;;;;;18.42;52.90;96604.81;4931428;29;20609;-77
2022/09/13 00:54:19;;;;;;;2.93;2.00;;;;;;;18.39;52.75;96605.06;4930766;29;20229;-77
2022/09/13 00:56:52;;;;;;;2.43;2.10;;;;;;;18.27;52.90;96598.22;4932435;29;20290;-76
2022/09/13 00:59:25;;;;;;;2.93;1.90;;;;;;;18.29;53.17;96602.41;4934382;29;20692;-76
2022/09/13 01:01:55;;;;;;;2.20;2.00;;;;;;;18.31;53.15;96610.13;4932283;29;20356;-75
2022/09/13 01:04:26;;;;;;;3.57;1.90;;;;;;;18.28;53.62;96605.16;4930623;29;20692;-76
2022/09/13 01:06:58;;;;;;;2.60;2.10;;;;;;;18.21;53.81;96599.59;4932019;29;20204;-76
2022/09/13 01:09:28;;;;;;;2.10;1.80;;;;;;;18.37;53.30;96599.13;4931515;29;20201;-76
2022/09/13 01:12:07;;;;;;;3.00;2.00;;;;;;;18.22;53.49;96597.78;4930490;29;20225;-76
2022/09/13 01:14:35;;;;;;;2.63;2.13;;;;;;;18.22;53.68;96584.66;4930667;29;20249;-76
2022/09/13 01:17:03;;;;;;;3.10;2.00;;;;;;;18.38;52.77;96595.56;4930566;29;20288;-76
2022/09/13 01:19:30;;;;;;;3.63;1.73;;;;;;;18.12;53.11;96573.28;4932429;29;20287;-77
2022/09/13 01:22:21;;;;;;;1.90;1.70;;;;;;;18.19;53.35;96598.03;4931019;29;20199;-77
2022/09/13 01:25:02;;;;;;;2.83;2.20;;;;;;;18.15;53.44;96600.09;4929216;29;20740;-75
2022/09/13 01:27:38;;;;;;;2.90;2.10;;;;;;;18.17;53.40;96599.97;4931883;29;20192;-76
2022/09/13 01:30:22;;;;;;;2.10;1.83;;;;;;;18.13;53.42;96603.78;4930666;29;20227;-75
2022/09/13 01:33:13;;;;;;;2.10;1.70;;;;;;;18.16;53.79;96600.91;4931921;29;20198;-76
2022/09/13 01:35:56;;;;;;;2.60;2.10;;;;;;;18.10;54.00;96601.41;4931948;29;20238;-76
2022/09/13 01:38:37;;;;;;;2.10;1.90;;;;;;;18.06;54.18;96605.25;4928756;29;20260;-76
2022/09/13 01:41:06;;;;;;;2.53;1.97;;;;;;;18.02;54.23;96593.34;4931376;29;20203;-77
2022/09/13 01:44:00;;;;;;;2.03;1.60;;;;;;;18.07;53.95;96609.53;4930507;29;20195;-78
2022/09/13 01:46:46;;;;;;;2.10;1.90;;;;;;;18.00;54.03;96592.66;4930292;29;20588;-77
2022/09/13 01:49:23;;;;;;;2.20;2.00;;;;;;;18.01;53.93;96599.56;4931371;29;20676;-76
2022/09/13 01:52:02;;;;;;;2.10;1.90;;;;;;;17.93;54.20;96594.13;4930350;29;20200;-76
2022/09/13 01:55:07;;;;;;;3.33;2.30;;;;;;;17.79;54.47;96598.69;4931322;29;20260;-78
2022/09/13 01:57:53;;;;;;;2.20;2.00;;;;;;;17.74;54.90;96598.22;4932990;29;20194;-76
2022/09/13 02:00:20;;;;;;;3.63;2.00;;;;;;;17.82;54.63;96593.22;4929937;29;20285;-76
2022/09/13 02:03:09;;;;;;;4.50;2.70;;;;;;;17.84;54.91;96601.78;4931295;29;20572;-78
2022/09/13 02:05:46;;;;;;;2.60;1.90;;;;;;;17.80;54.17;96589.88;4930755;29;20201;-76
2022/09/13 02:08:37;;;;;;;2.50;2.13;;;;;;;17.92;53.69;96584.59;4928545;29;20629;-76
2022/09/13 02:11:12;;;;;;;2.57;2.20;;;;;;;18.01;53.94;96587.28;4930985;29;20215;-76
2022/09/13 02:13:46;;;;;;;2.30;2.00;;;;;;;17.95;53.94;96586.97;4929525;29;20903;-76
2022/09/13 02:16:34;;;;;;;4.83;2.10;;;;;;;18.00;54.01;96598.72;4930707;29;20254;-76
2022/09/13 02:19:09;;;;;;;2.30;2.10;;;;;;;18.03;54.03;96589.78;4945830;29;20212;-73
2022/09/13 02:21:42;;;;;;;1.80;1.63;;;;;;;18.04;53.45;96594.06;4929282;29;20199;-75
2022/09/13 02:24:21;;;;;;;2.63;1.97;;;;;;;18.03;53.19;96584.56;4930304;29;20322;-74
2022/09/13 02:26:53;;;;;;;4.87;1.93;;;;;;;18.06;53.17;96598.22;4929448;29;20218;-74
2022/09/13 02:29:23;;;;;;;2.70;1.90;;;;;;;17.95;53.94;96595.63;4931690;29;20250;-75
2022/09/13 02:32:04;;;;;;;1.97;1.87;;;;;;;17.83;53.63;96600.09;4931008;29;20275;-76
2022/09/13 02:34:39;;;;;;;2.20;1.90;;;;;;;17.82;53.69;96600.25;4929081;29;20256;-75
2022/09/13 02:37:08;;;;;;;2.13;1.73;;;;;;;17.81;53.83;96599.41;4930644;29;20728;-75
2022/09/13 02:39:39;;;;;;;2.33;2.13;;;;;;;17.69;53.99;96587.31;4929174;29;20195;-74
2022/09/13 02:42:09;;;;;;;1.77;1.67;;;;;;;17.71;53.87;96592.41;4930695;29;20191;-75
2022/09/13 02:44:44;;;;;;;2.20;2.00;;;;;;;17.59;54.10;96573.28;4929450;29;20200;-75
2022/09/13 02:47:23;;;;;;;2.13;1.97;;;;;;;17.66;54.08;96592.78;4929453;29;20202;-75
2022/09/13 02:49:53;;;;;;;1.90;1.80;;;;;;;17.64;54.43;96594.69;4930611;29;20208;-74
2022/09/13 02:52:36;;;;;;;1.93;1.83;;;;;;;17.64;54.04;96592.06;4928923;29;20282;-76
2022/09/13 02:55:14;;;;;;;1.93;1.70;;;;;;;17.67;54.37;96598.84;4930705;29;20230;-75
2022/09/13 02:57:52;;;;;;;2.20;2.00;;;;;;;17.72;54.22;96594.91;4930428;29;20296;-75
2022/09/13 03:00:20;;;;;;;1.80;1.70;;;;;;;17.71;53.85;96590.63;4929196;29;20591;-75
2022/09/13 03:02:50;;;;;;;1.83;1.73;;;;;;;17.69;53.92;96594.31;4929204;29;20325;-74
2022/09/13 03:05:17;;;;;;;2.50;2.00;;;;;;;17.75;54.02;96593.81;4929496;29;20491;-76
2022/09/13 03:07:47;;;;;;;2.13;1.90;;;;;;;17.73;53.71;96599.19;4930646;29;20236;-76
2022/09/13 03:10:14;;;;;;;2.00;1.80;;;;;;;17.77;53.85;96592.75;4929457;29;20191;-75
2022/09/13 03:13:06;;;;;;;2.07;1.50;;;;;;;17.65;53.87;96590.28;4929725;29;20212;-75
2022/09/13 03:15:56;;;;;;;1.70;1.60;;;;;;;17.64;53.66;96597.31;4930305;29;20334;-75
2022/09/13 03:18:50;;;;;;;3.43;1.70;;;;;;;17.65;52.44;96600.78;4928859;29;20204;-75
2022/09/13 03:21:45;;;;;;;2.90;1.60;;;;;;;17.75;52.44;96597.28;4930032;29;20668;-76
2022/09/13 03:24:22;;;;;;;2.93;2.10;;;;;;;17.72;52.73;96599.34;4930049;29;20320;-76
2022/09/13 03:27:07;;;;;;;2.07;1.87;;;;;;;17.77;52.93;96600.59;4928699;29;20247;-75
2022/09/13 03:30:03;;;;;;;3.80;2.17;;;;;;;17.89;52.65;96598.75;4929022;29;20283;-76
2022/09/13 03:32:36;;;;;;;3.70;1.90;;;;;;;17.85;52.32;96603.44;4930055;29;20637;-75
2022/09/13 03:35:06;;;;;;;2.10;1.87;;;;;;;17.89;52.19;96611.88;4929382;29;20257;-76
2022/09/13 03:38:04;;;;;;;6.13;3.07;;;;;;;17.93;52.12;96609.84;4933784;29;20190;-76
2022/09/13 03:40:51;;;;;;;3.90;2.30;;;;;;;17.86;52.05;96610.34;4932599;29;20290;-75
2022/09/13 03:43:47;;;;;;;2.93;1.97;;;;;;;17.91;51.73;96615.19;4932895;29;20194;-76
2022/09/13 03:46:16;;;;;;;1.73;1.63;;;;;;;17.78;51.55;96597.00;4932976;29;20247;-77
2022/09/13 03:48:44;;;;;;;2.60;1.83;;;;;;;17.69;52.00;96605.63;4929195;29;20213;-77
2022/09/13 03:51:12;;;;;;;2.07;1.70;;;;;;;17.73;52.24;96606.22;4914654;29;20580;-77
2022/09/13 03:53:49;;;;;;;4.87;2.30;;;;;;;17.89;51.33;96606.63;4921728;29;20631;-77
2022/09/13 03:56:19;;;;;;;3.73;2.20;;;;;;;17.84;52.91;96604.41;4936033;29;20225;-77
2022/09/13 03:58:47;;;;;;;5.40;2.40;;;;;;;17.69;53.45;96608.25;4933420;29;20984;-76
2022/09/13 04:01:19;;;;;;;2.57;2.37;;;;;;;17.54;53.85;96603.41;4932035;29;20190;-78
2022/09/13 04:03:47;;;;;;;5.23;3.10;;;;;;;17.46;53.85;96600.53;4933595;29;20196;-76
2022/09/13 04:06:14;;;;;;;5.57;3.43;;;;;;;17.43;54.04;96595.56;4930425;29;20606;-76
2022/09/13 04:08:41;;;;;;;3.13;2.27;;;;;;;17.39;53.34;96605.47;4931957;29;20185;-76
2022/09/13 04:11:08;;;;;;;8.93;2.87;;;;;;;17.51;54.00;96609.75;4932685;29;20201;-77
2022/09/13 04:13:36;;;;;;;5.43;2.50;;;;;;;17.44;54.72;96608.53;4931956;29;20198;-76
2022/09/13 04:16:05;;;;;;;4.97;2.70;;;;;;;17.36;55.27;96608.31;4932608;29;20270;-75
2022/09/13 04:18:36;;;;;;;14.57;4.67;;;;;;;17.37;55.03;96606.53;4932171;29;20207;-77
2022/09/13 04:21:03;;;;;;;4.37;3.10;;;;;;;17.37;55.44;96609.97;4931650;29;20252;-76
2022/09/13 04:23:30;;;;;;;10.37;3.00;;;;;;;17.29;55.25;96607.13;4931062;29;20290;-77
2022/09/13 04:26:05;;;;;;;2.70;2.50;;;;;;;17.27;54.91;96614.25;4931561;29;20257;-76
2022/09/13 04:28:32;;;;;;;4.63;2.97;;;;;;;17.13;56.13;96611.91;4932323;29;20290;-78
2022/09/13 04:30:59;;;;;;;3.60;2.80;;;;;;;17.21;55.62;96612.13;4931672;29;20583;-75
2022/09/13 04:33:27;;;;;;;5.47;2.80;;;;;;;17.21;55.62;96621.78;4932333;29;20234;-76
2022/09/13 04:36:01;;;;;;;4.90;2.90;;;;;;;17.29;55.65;96614.97;4933752;29;20429;-78
2022/09/13 04:38:30;;;;;;;4.03;2.67;;;;;;;17.41;55.31;96618.41;4916875;29;20737;-76
2022/09/13 04:40:57;;;;;;;3.93;3.10;;;;;;;17.40;54.91;96627.22;4930970;29;20219;-76
2022/09/13 04:43:24;;;;;;;7.30;3.40;;;;;;;17.70;55.15;96617.75;4932181;29;20254;-76
2022/09/13 04:45:51;;;;;;;4.17;3.17;;;;;;;17.83;54.73;96625.47;4931574;29;20223;-76
2022/09/13 04:48:18;;;;;;;4.87;3.83;;;;;;;17.96;53.50;96635.78;4930027;29;20849;-76
2022/09/13 04:50:46;;;;;;;3.53;3.13;;;;;;;18.13;53.66;96630.84;4932783;29;20284;-76
2022/09/13 04:53:13;;;;;;;5.20;3.30;;;;;;;18.29;53.52;96633.03;4930755;29;20224;-76
2022/09/13 04:55:40;;;;;;;9.87;4.20;;;;;;;18.61;53.27;96639.06;4934425;29;20697;-77
2022/09/13 04:58:07;;;;;;;9.20;3.33;;;;;;;18.72;52.46;96638.16;4930589;29;20735;-76
2022/09/13 05:00:34;;;;;;;3.40;2.70;;;;;;;18.83;51.72;96643.34;4932647;29;20192;-78
2022/09/13 05:03:03;;;;;;;10.77;3.07;;;;;;;18.93;51.35;96639.81;4931366;29;20220;-76
2022/09/13 05:05:31;;;;;;;7.40;2.63;;;;;;;19.06;50.20;96653.50;4930461;29;20272;-76
2022/09/13 05:07:58;;;;;;;6.67;2.90;;;;;;;19.18;50.39;96665.63;4931840;29;20224;-76
2022/09/13 05:10:25;;;;;;;3.13;2.67;;;;;;;18.83;50.38;96665.16;4930246;29;20296;-76
2022/09/13 05:12:52;;;;;;;4.53;3.80;;;;;;;18.28;52.99;96637.41;4932320;29;20200;-77
2022/09/13 05:15:19;;;;;;;6.47;3.67;;;;;;;18.68;53.60;96666.44;4930451;29;20245;-76
2022/09/13 05:17:45;;;;;;;4.73;3.87;;;;;;;19.04;51.56;96662.50;4931714;29;20189;-77
2022/09/13 05:20:12;;;;;;;10.80;4.27;;;;;;;19.36;50.30;96674.56;4930219;29;20190;-76
2022/09/13 05:22:39;;;;;;;4.50;3.47;;;;;;;19.46;49.22;96664.91;4930871;29;20247;-75
2022/09/13 05:25:07;;;;;;;9.00;4.50;;;;;;;19.28;49.74;96661.22;4929710;29;20221;-76
2022/09/13 05:27:34;;;;;;;10.80;3.00;;;;;;;19.63;48.88;96670.47;4929943;29;20202;-76
2022/09/13 05:30:01;;;;;;;6.63;4.37;;;;;;;19.67;48.21;96666.63;4931355;29;20241;-75
2022/09/13 05:32:30;;;;;;;6.73;4.53;;;;;;;19.93;47.63;96667.78;4929735;29;20197;-76
2022/09/13 05:34:57;;;;;;;4.87;3.30;;;;;;;19.95;47.62;96668.47;4930810;29;20205;-75
2022/09/13 05:37:24;;;;;;;5.70;3.17;;;;;;;19.57;47.44;96645.59;4929621;29;20189;-75
2022/09/13 05:39:52;;;;;;;5.03;3.03;;;;;;;20.04;47.36;96670.28;4929592;29;20197;-76
2022/09/13 05:42:39;;;;;;;5.50;2.80;;;;;;;20.21;47.31;96678.38;4930989;29;20187;-76
2022/09/13 05:45:06;;;;;;;5.87;3.30;;;;;;;20.33;46.73;96667.69;4930048;29;20226;-76
2022/09/13 05:47:33;;;;;;;8.20;3.30;;;;;;;20.50;46.22;96667.00;4931196;29;20198;-76
2022/09/13 05:50:00;;;;;;;6.03;2.87;;;;;;;20.61;46.03;96665.03;4929606;29;20840;-76
2022/09/13 05:52:39;;;;;;;7.90;3.27;;;;;;;20.77;45.17;96667.91;4931381;29;20186;-75
2022/09/13 05:55:06;;;;;;;7.30;5.60;;;;;;;20.79;45.37;96631.75;4932008;29;20225;-76
2022/09/13 05:57:33;;;;;;;6.43;3.30;;;;;;;20.92;45.31;96640.19;4930060;29;20187;-77
2022/09/13 06:00:00;;;;;;;4.80;2.90;;;;;;;21.04;45.93;96656.69;4933328;29;20623;-76
2022/09/13 06:02:38;;;;;;;9.27;3.80;;;;;;;21.01;45.64;96668.28;4936607;29;20192;-76
2022/09/13 06:05:06;;;;;;;8.27;4.17;;;;;;;20.97;45.98;96669.56;4932806;29;20229;-76
2022/09/13 06:07:32;;;;;;;11.40;5.00;;;;;;;21.05;45.95;96680.22;4930110;29;20202;-76
2022/09/13 06:09:59;;;;;;;13.70;5.43;;;;;;;21.14;46.26;96672.44;4931393;29;20326;-76
2022/09/13 06:12:27;;;;;;;8.53;4.87;;;;;;;20.99;46.19;96654.44;4930196;29;20241;-75
2022/09/13 06:14:55;;;;;;;9.60;4.77;;;;;;;21.17;46.09;96674.78;4929863;29;20192;-76
2022/09/13 06:17:22;;;;;;;7.20;3.77;;;;;;;21.24;45.78;96684.63;4930029;29;20257;-75
2022/09/13 06:19:49;;;;;;;8.83;4.07;;;;;;;21.35;46.68;96686.25;4927426;29;20195;-76
2022/09/13 06:22:18;;;;;;;8.40;4.93;;;;;;;21.30;47.29;96670.84;4930548;29;20200;-75
2022/09/13 06:24:45;;;;;;;9.03;4.97;;;;;;;21.44;46.94;96682.72;4953910;28;20246;-77
2022/09/13 06:27:12;;;;;;;8.20;4.60;;;;;;;21.27;46.41;96675.59;4968747;28;20244;-75
2022/09/13 06:29:39;;;;;;;13.47;5.37;;;;;;;21.37;46.37;96686.91;4967163;28;20197;-76
2022/09/13 06:32:06;;;;;;;6.43;3.70;;;;;;;21.68;45.41;96685.63;4967999;28;20197;-75
2022/09/13 06:34:45;;;;;;;7.90;4.50;;;;;;;21.39;44.75;96666.53;4967644;28;20228;-75
2022/09/13 06:37:24;;;;;;;6.63;4.23;;;;;;;21.61;44.66;96674.03;4950365;28;20232;-78
2022/09/13 06:39:54;;;;;;;6.63;3.60;;;;;;;21.45;45.96;96687.03;4968290;28;20253;-76
2022/09/13 06:42:21;;;;;;;9.13;4.23;;;;;;;21.73;44.38;96683.41;4949520;28;20194;-75
2022/09/13 06:44:48;;;;;;;5.10;3.90;;;;;;;21.82;43.79;96658.84;4951064;28;20194;-76
2022/09/13 06:47:15;;;;;;;8.80;4.43;;;;;;;21.84;44.68;96684.06;4967157;28;20250;-76
2022/09/13 06:49:42;;;;;;;9.23;4.00;;;;;;;22.06;44.02;96693.38;4967678;28;20201;-76
2022/09/13 06:52:09;;;;;;;4.83;3.00;;;;;;;21.96;44.17;96684.69;4968499;28;20195;-76
2022/09/13 06:54:36;;;;;;;5.53;3.53;;;;;;;22.00;43.90;96693.97;4967390;28;20202;-76
2022/09/13 06:57:03;;;;;;;8.27;3.10;;;;;;;22.02;43.94;96702.56;4968362;28;20318;-75
2022/09/13 06:59:31;;;;;;;4.00;2.80;;;;;;;22.21;43.38;96706.88;4966533;28;20697;-76
2022/09/13 07:01:57;;;;;;;5.93;2.83;;;;;;;22.26;43.97;96705.44;4968043;28;20190;-76
2022/09/13 07:04:25;;;;;;;4.73;3.43;;;;;;;22.36;42.63;96700.91;4949499;28;20242;-76
2022/09/13 07:06:52;;;;;;;5.53;4.07;;;;;;;22.43;42.29;96704.63;4967096;28;20203;-76
2022/09/13 07:09:21;;;;;;;8.87;3.97;;;;;;;22.40;42.38;96702.28;4951391;28;20238;-76
2022/09/13 07:11:49;;;;;;;12.33;4.60;;;;;;;22.51;42.55;96706.50;4969274;28;20193;-76
2022/09/13 07:14:23;;;;;;;7.40;3.20;;;;;;;22.47;42.48;96699.88;4970404;28;20184;-76
2022/09/13 07:16:50;;;;;;;7.90;4.27;;;;;;;22.65;42.38;96709.47;4952807;28;21001;-76
2022/09/13 07:19:21;;;;;;;5.50;3.57;;;;;;;22.79;42.38;96694.91;4971816;28;20230;-77
2022/09/13 07:21:49;;;;;;;6.47;3.17;;;;;;;23.00;41.93;96710.41;4920687;28;20255;-76
2022/09/13 07:24:17;;;;;;;9.07;3.57;;;;;;;23.16;41.45;96718.44;4970886;28;20232;-76
2022/09/13 07:26:45;;;;;;;4.87;4.37;;;;;;;22.98;41.17;96709.75;4971273;28;20289;-76
2022/09/13 07:29:18;;;;;;;5.00;3.27;;;;;;;23.11;41.71;96703.06;4970684;28;20188;-76
2022/09/13 07:31:48;;;;;;;5.10;3.27;;;;;;;23.13;41.13;96722.22;4971398;28;20196;-77
2022/09/13 07:34:21;;;;;;;8.93;3.53;;;;;;;22.97;40.57;96711.53;4953898;28;20311;-77
2022/09/13 07:36:52;;;;;;;5.90;3.60;;;;;;;22.84;41.70;96697.06;4972081;28;20709;-76
2022/09/13 07:39:20;;;;;;;5.77;3.50;;;;;;;22.95;41.43;96715.31;4970904;28;20606;-76
2022/09/13 07:41:50;;;;;;;4.73;2.50;;;;;;;22.90;40.89;96704.38;4970869;28;20208;-76
2022/09/13 07:44:18;;;;;;;4.40;2.40;;;;;;;22.89;40.90;96714.13;4971829;28;20203;-77
2022/09/13 07:46:46;;;;;;;5.03;2.30;;;;;;;22.19;41.69;96717.59;4970804;28;20981;-76
2022/09/13 07:49:15;;;;;;;3.97;2.43;;;;;;;22.55;41.21;96718.41;4953953;28;20195;-77
2022/09/13 07:51:43;;;;;;;3.03;2.53;;;;;;;22.58;41.15;96711.06;4952481;28;20194;-76
2022/09/13 07:54:16;;;;;;;5.17;2.57;;;;;;;22.39;41.53;96689.25;4971420;28;20526;-76
2022/09/13 07:56:44;;;;;;;2.67;2.47;;;;;;;22.62;41.09;96717.72;4953109;28;20731;-75
2022/09/13 07:59:15;;;;;;;4.17;2.10;;;;;;;22.16;40.65;96723.16;4970835;28;20254;-76
2022/09/13 08:01:47;;;;;;;3.53;1.67;;;;;;;22.18;40.07;96717.72;4970643;28;20639;-77
2022/09/13 08:04:20;;;;;;;1.93;1.63;;;;;;;22.34;40.06;96716.06;4952562;28;20207;-76
2022/09/13 08:06:47;;;;;;;3.20;1.97;;;;;;;22.39;40.67;96708.53;4953752;28;20220;-76
2022/09/13 08:09:15;;;;;;;2.63;2.37;;;;;;;22.25;40.65;96711.72;4970022;28;20294;-78
2022/09/13 08:11:45;;;;;;;3.30;1.90;;;;;;;22.07;40.62;96710.03;4971378;28;20927;-76
2022/09/13 08:14:15;;;;;;;1.83;1.50;;;;;;;21.79;40.37;96681.03;4970687;28;20194;-77
2022/09/13 08:16:42;;;;;;;2.10;1.57;;;;;;;21.90;40.75;96710.81;4970326;28;20588;-76
2022/09/13 08:19:12;;;;;;;2.77;1.97;;;;;;;21.87;40.18;96722.50;4971627;28;20217;-76
2022/09/13 08:21:41;;;;;;;2.53;2.10;;;;;;;21.95;39.82;96712.03;4969088;28;20241;-76
2022/09/13 08:24:27;;;;;;;3.97;2.20;;;;;;;22.13;40.10;96728.75;4970368;28;20225;-76
2022/09/13 08:26:54;;;;;;;3.70;1.90;;;;;;;21.91;40.10;96707.22;4954612;28;20226;-76
2022/09/13 08:29:22;;;;;;;2.03;1.80;;;;;;;21.94;40.58;96720.94;4938529;28;20214;-76
2022/09/13 08:31:49;;;;;;;2.00;1.43;;;;;;;21.69;41.28;96708.41;4971229;28;20223;-76
2022/09/13 08:34:17;;;;;;;1.73;1.50;;;;;;;21.74;40.70;96719.34;4969885;28;20271;-75
2022/09/13 08:36:44;;;;;;;1.57;1.47;;;;;;;21.99;40.04;96721.31;4970259;28;20295;-75
2022/09/13 08:39:12;;;;;;;3.10;1.43;;;;;;;22.09;40.76;96716.78;4969259;28;20202;-76
2022/09/13 08:41:46;;;;;;;3.67;1.83;;;;;;;22.49;40.13;96714.56;4969969;28;20230;-77
2022/09/13 08:44:32;;;;;;;2.27;1.50;;;;;;;22.83;40.38;96713.91;4969498;28;20206;-77
2022/09/13 08:47:37;;;;;;;1.83;1.73;;;;;;;22.43;41.79;96725.75;4969998;28;20218;-76
2022/09/13 08:50:11;;;;;;;1.70;1.60;;;;;;;21.99;42.21;96739.75;4905522;28;20702;-78
2022/09/13 08:52:48;;;;;;;2.30;2.10;;;;;;;22.19;42.18;96724.66;4970264;28;20290;-77
2022/09/13 08:55:24;;;;;;;3.00;1.90;;;;;;;21.90;42.06;96705.56;4970190;28;20191;-76
2022/09/13 08:58:35;;;;;;;2.90;2.13;;;;;;;21.87;41.98;96725.13;4970418;28;20313;-76
2022/09/13 09:01:06;;;;;;;2.20;1.67;;;;;;;21.42;42.20;96721.56;4944882;28;20202;-75
2022/09/13 09:03:45;;;;;;;2.37;1.70;;;;;;;21.31;41.53;96727.03;4970337;28;20274;-76
2022/09/13 09:06:15;;;;;;;3.47;2.97;;;;;;;21.30;42.38;96714.81;4968787;28;20196;-74
2022/09/13 09:09:16;;;;;;;2.17;1.70;;;;;;;21.16;42.79;96725.81;4939049;28;20200;-79
2022/09/13 09:11:55;;;;;;;2.60;1.50;;;;;;;21.02;43.38;96712.09;4953037;28;20257;-74
2022/09/13 09:14:37;;;;;;;2.43;1.67;;;;;;;21.10;42.93;96698.25;4953442;28;20205;-76
2022/09/13 09:17:12;;;;;;;2.97;1.97;;;;;;;21.11;43.91;96707.78;4935836;28;20233;-76
2022/09/13 09:19:44;;;;;;;1.93;1.73;;;;;;;21.08;43.13;96706.25;4969016;28;20193;-75
2022/09/13 09:22:23;;;;;;;2.73;1.63;;;;;;;21.46;42.50;96715.84;4951895;28;20232;-76
2022/09/13 09:24:54;;;;;;;3.33;1.73;;;;;;;21.75;41.64;96716.56;4968480;28;20233;-76
2022/09/13 09:27:22;;;;;;;3.23;1.97;;;;;;;21.78;41.42;96726.00;4950950;28;20197;-76
2022/09/13 09:29:57;;;;;;;1.63;1.47;;;;;;;21.83;40.64;96700.03;4971384;28;20713;-76
2022/09/13 09:32:48;;;;;;;2.37;1.90;;;;;;;21.73;40.83;96712.41;4951251;28;20255;-75
2022/09/13 09:35:30;;;;;;;2.60;1.63;;;;;;;21.87;40.87;96696.13;4968089;28;20187;-75
2022/09/13 09:38:16;;;;;;;3.00;1.60;;;;;;;22.02;40.27;96699.09;4968002;28;20276;-76
2022/09/13 09:40:44;;;;;;;4.30;1.90;;;;;;;22.08;39.70;96686.13;4968230;28;20293;-76
2022/09/13 09:43:23;;;;;;;2.27;1.70;;;;;;;22.13;39.61;96686.53;4969103;28;20224;-74
2022/09/13 09:45:55;;;;;;;3.47;1.80;;;;;;;22.25;39.55;96693.25;4970242;28;20201;-77
2022/09/13 09:48:28;;;;;;;2.53;1.60;;;;;;;22.29;40.02;96697.25;4968162;28;20198;-75
2022/09/13 09:50:57;;;;;;;2.57;1.70;;;;;;;22.22;40.13;96697.97;4951981;28;20194;-75
2022/09/13 09:53:32;;;;;;;2.20;1.60;;;;;;;22.44;39.86;96692.28;4968630;28;20202;-76
2022/09/13 09:56:28;;;;;;;2.37;1.70;;;;;;;22.14;39.79;96690.81;4968946;28;20199;-75
2022/09/13 09:58:55;;;;;;;2.90;1.57;;;;;;;22.14;39.74;96685.53;4969124;28;20199;-75
2022/09/13 10:01:26;;;;;;;2.27;1.90;;;;;;;22.59;39.50;96678.41;4935356;28;20265;-75
2022/09/13 10:04:17;;;;;;;1.80;1.60;;;;;;;22.75;37.59;96674.25;4972531;28;20301;-77
2022/09/13 10:06:45;;;;;;;1.47;1.37;;;;;;;22.69;37.21;96678.28;4951133;28;20270;-75
2022/09/13 10:09:12;;;;;;;2.03;1.40;;;;;;;22.93;36.76;96677.66;4968938;28;20220;-75
2022/09/13 10:11:44;;;;;;;2.90;2.07;;;;;;;23.26;36.50;96664.50;4968990;28;20216;-75
2022/09/13 10:14:33;;;;;;;2.57;1.77;;;;;;;23.55;35.65;96673.91;4968261;28;20641;-78
2022/09/13 10:17:18;;;;;;;2.87;1.63;;;;;;;23.65;35.89;96671.97;4952570;28;20224;-76
2022/09/13 10:20:00;;;;;;;2.07;1.87;;;;;;;23.76;35.36;96671.69;4969470;28;20730;-80
2022/09/13 10:22:33;;;;;;;2.10;1.77;;;;;;;24.17;35.14;96676.13;4937067;28;20744;-76
2022/09/13 10:25:16;;;;;;;1.87;1.63;;;;;;;24.40;33.84;96671.03;4934669;28;20291;-75
2022/09/13 10:27:50;;;;;;;4.50;2.00;;;;;;;24.59;34.75;96668.03;4967053;28;20203;-74
2022/09/13 10:30:39;;;;;;;2.33;1.53;;;;;;;24.60;33.84;96667.06;4968250;28;20195;-76
2022/09/13 10:33:24;;;;;;;2.90;2.37;;;;;;;24.77;33.93;96658.16;4967687;28;20195;-76
2022/09/13 10:35:56;;;;;;;2.70;1.60;;;;;;;23.96;34.75;96658.03;4967256;28;20193;-76
2022/09/13 10:38:25;;;;;;;2.30;1.50;;;;;;;23.42;36.58;96669.91;4968152;28;20270;-76
2022/09/13 10:40:53;;;;;;;2.07;1.87;;;;;;;23.42;36.68;96671.72;4966800;28;20228;-76
2022/09/13 10:43:23;;;;;;;1.40;1.30;;;;;;;23.34;36.56;96659.28;4967898;28;20254;-76
2022/09/13 10:45:50;;;;;;;5.03;2.40;;;;;;;23.23;36.73;96659.53;4953472;28;20687;-75
2022/09/13 10:48:19;;;;;;;2.00;1.63;;;;;;;23.14;37.47;96654.34;4972048;28;20223;-75
2022/09/13 10:51:20;;;;;;;1.83;1.57;;;;;;;23.21;36.55;96656.22;4971726;28;20280;-74
2022/09/13 10:53:47;;;;;;;2.27;1.70;;;;;;;23.50;35.84;96661.16;4971410;28;20684;-75
2022/09/13 10:56:42;;;;;;;1.50;1.40;;;;;;;23.58;35.18;96641.84;4971598;28;20197;-75
2022/09/13 10:59:29;;;;;;;2.17;1.97;;;;;;;23.58;35.65;96653.25;4970869;28;20296;-75
2022/09/13 11:01:59;;;;;;;2.20;1.57;;;;;;;22.94;36.97;96658.19;4970493;28;20751;-75
2022/09/13 11:04:43;;;;;;;1.60;1.50;;;;;;;22.75;36.94;96653.13;4971677;28;20282;-77
2022/09/13 11:07:59;;;;;;;2.27;1.63;;;;;;;22.62;38.12;96649.06;4970039;28;20223;-74
2022/09/13 11:10:54;;;;;;;3.33;1.80;;;;;;;22.31;38.54;96645.16;4944817;28;20290;-75
2022/09/13 11:13:43;;;;;;;1.87;1.77;;;;;;;22.33;38.30;96645.81;4972105;28;20683;-75
2022/09/13 11:16:15;;;;;;;2.17;1.70;;;;;;;22.29;38.20;96643.63;4953282;28;20665;-75
2022/09/13 11:19:09;;;;;;;2.37;1.97;;;;;;;22.26;38.58;96650.03;4971907;28;20217;-75
2022/09/13 11:21:57;;;;;;;1.60;1.50;;;;;;;22.21;39.20;96649.69;4967383;28;20235;-75
2022/09/13 11:25:02;;;;;;;2.27;1.70;;;;;;;22.45;38.67;96647.25;4970894;28;20244;-76
2022/09/13 11:28:26;;;;;;;3.47;1.67;;;;;;;22.64;37.75;96649.75;4954651;28;20673;-75
2022/09/13 11:31:03;;;;;;;3.77;1.70;;;;;;;22.94;37.62;96644.97;4873918;29;20223;-75
2022/09/13 11:34:25;;;;;;;2.90;1.90;;;;;;;22.97;38.10;96647.31;4963514;28;20204;-76
2022/09/13 11:37:49;;;;;;;3.00;1.77;;;;;;;22.85;39.38;96640.63;4938525;28;20630;-76
2022/09/13 11:40:42;;;;;;;2.07;1.70;;;;;;;22.64;39.80;96651.53;4971049;28;20200;-77
2022/09/13 11:43:18;;;;;;;2.93;1.53;;;;;;;22.43;40.24;96640.44;4972933;28;20186;-77
2022/09/13 11:45:58;;;;;;;1.80;1.70;;;;;;;22.37;40.04;96647.19;4969941;28;20182;-75
2022/09/13 11:48:26;;;;;;;1.80;1.70;;;;;;;22.33;40.20;96648.47;4970358;28;20209;-74
2022/09/13 11:51:08;;;;;;;2.80;1.67;;;;;;;22.44;39.36;96642.94;4970271;28;20563;-75
2022/09/13 11:54:26;;;;;;;1.60;1.50;;;;;;;22.60;39.46;96627.28;4971811;28;20611;-75
2022/09/13 11:57:05;;;;;;;2.03;1.83;;;;;;;22.67;39.48;96642.50;4916769;28;20751;-75
2022/09/13 11:59:49;;;;;;;1.50;1.40;;;;;;;22.56;38.73;96643.53;4970278;28;20197;-76
2022/09/13 12:02:31;;;;;;;1.93;1.83;;;;;;;22.49;38.50;96645.94;4970890;28;20342;-76
2022/09/13 12:05:09;;;;;;;1.83;1.47;;;;;;;22.31;38.48;96634.59;4970879;28;20203;-75
2022/09/13 12:08:16;;;;;;;1.70;1.60;;;;;;;22.42;38.14;96644.88;4969317;28;20612;-75
2022/09/13 12:10:57;;;;;;;1.80;1.63;;;;;;;22.77;38.69;96630.88;4970521;28;20228;-75